createdAt,value
2023-10-20T00:06:27.877Z,6.61
2023-10-20T00:22:10.461Z,6.58
2023-10-20T00:37:53.013Z,6.56
2023-10-20T01:09:18.205Z,6.53
2023-10-20T01:25:00.834Z,6.51
2023-10-20T01:40:43.465Z,6.58
2023-10-20T01:56:26.413Z,6.58
2023-10-20T02:12:09.365Z,6.58
2023-10-20T02:27:51.513Z,6.59
2023-10-20T02:43:34.240Z,6.62
2023-10-20T02:59:16.999Z,6.6
2023-10-20T03:14:59.267Z,6.53
2023-10-20T03:30:41.953Z,6.46
2023-10-20T03:46:24.989Z,6.37
2023-10-20T04:02:07.768Z,6.3
2023-10-20T04:17:50.781Z,6.23
2023-10-20T04:33:33.613Z,6.19
2023-10-20T04:49:15.897Z,6.08
2023-10-20T05:04:58.984Z,6.02
2023-10-20T05:20:41.938Z,5.99
2023-10-20T05:36:24.400Z,5.99
2023-10-20T05:52:07.412Z,5.94
2023-10-20T06:23:32.571Z,5.94
2023-10-20T06:39:14.932Z,5.95
2023-10-20T07:10:40.294Z,5.86
2023-10-20T07:26:23.051Z,5.84
2023-10-20T07:42:05.743Z,5.79
2023-10-20T07:57:48.333Z,5.79
2023-10-20T08:13:30.597Z,5.7
2023-10-20T08:29:13.814Z,5.64
2023-10-20T08:44:56.025Z,5.62
2023-10-20T09:00:38.722Z,5.63
2023-10-20T09:16:21.082Z,5.54
2023-10-20T09:17:08.384Z,5.73
2023-10-20T09:32:51.026Z,5.63
2023-10-20T09:48:34.019Z,5.58
2023-10-20T10:04:16.646Z,5.59
2023-10-20T10:19:59.396Z,5.56
2023-10-20T10:35:41.990Z,5.55
2023-10-20T10:51:24.775Z,5.5
2023-10-20T11:07:07.619Z,5.48
2023-10-20T11:22:49.591Z,5.41
2023-10-20T11:38:32.474Z,5.51
2023-10-20T11:54:15.046Z,5.6
2023-10-20T12:09:57.835Z,5.57
2023-10-20T12:25:40.598Z,5.72
2023-10-20T12:41:23.041Z,5.76
2023-10-20T12:57:05.482Z,5.73
2023-10-20T13:12:48.405Z,5.58
2023-10-20T13:28:31.491Z,5.51
2023-10-20T13:44:14.494Z,5.44
2023-10-20T13:59:57.080Z,5.32
2023-10-20T14:15:39.287Z,5.2
2023-10-20T14:31:21.768Z,5.09
2023-10-20T14:47:04.442Z,5.03
2023-10-20T15:02:47.324Z,4.91
2023-10-20T15:18:29.502Z,4.81
2023-10-20T15:34:11.753Z,4.79
2023-10-20T15:49:54.070Z,4.65
2023-10-20T16:05:36.436Z,4.59
2023-10-20T16:21:18.835Z,4.53
2023-10-20T16:37:01.834Z,4.57
2023-10-20T16:52:44.124Z,4.64
2023-10-20T17:08:26.645Z,4.73
2023-10-20T17:24:09.291Z,4.85
2023-10-20T17:39:52.268Z,4.94
2023-10-20T17:55:35.017Z,5.06
2023-10-20T18:11:18.022Z,5.17
2023-10-20T18:27:01.102Z,5.26
2023-10-20T18:42:44.213Z,5.35
2023-10-20T18:58:26.692Z,5.44
2023-10-20T19:14:09.638Z,5.51
2023-10-20T19:29:52.173Z,5.54
2023-10-20T19:45:35.076Z,5.59
2023-10-20T20:01:17.989Z,5.64
2023-10-20T20:17:00.327Z,5.66
2023-10-20T20:32:42.719Z,5.69
2023-10-20T20:48:25.470Z,5.77
2023-10-20T21:04:08.446Z,5.85
2023-10-20T21:19:51.319Z,5.93
2023-10-20T21:35:34.110Z,5.99
2023-10-20T21:51:16.642Z,6
2023-10-20T22:06:59.286Z,6.05
2023-10-20T22:22:42.364Z,6.1
2023-10-20T22:38:25.452Z,6.14
2023-10-20T22:54:08.421Z,6.2
2023-10-20T23:09:50.801Z,6.22
2023-10-20T23:25:32.989Z,6.22
2023-10-20T23:41:15.111Z,6.23
2023-10-20T23:56:58.194Z,6.24
